Time;durP1;ratioP1;P1;durP2;ratioP2;P2;SDS_P1;SDS_P2;PMS_P1;PMS_P2;Temp;Humidity;BMP_temperature;BMP_pressure;BME280_temperature;BME280_humidity;BME280_pressure;Samples;Min_cycle;Max_cycle;Signal;HPM_P1;HPM_P2
2023/05/27 00:02:23;;;;;;;17.48;3.95;;;;;;;;;;5062551;27;89107;-76
2023/05/27 00:04:50;;;;;;;15.52;4.25;;;;;;;;;;5056285;27;88798;-75
2023/05/27 00:07:17;;;;;;;23.75;4.78;;;;;;;;;;5056291;27;88978;-72
2023/05/27 00:09:43;;;;;;;18.55;4.25;;;;;;;;;;5064192;27;88324;-75
2023/05/27 00:12:09;;;;;;;22.77;4.60;;;;;;;;;;5074363;27;88691;-76
2023/05/27 00:14:36;;;;;;;16.52;4.40;;;;;;;;;;5077369;27;89285;-76
2023/05/27 00:17:03;;;;;;;16.15;4.45;;;;;;;;;;5073057;27;87984;-74
2023/05/27 00:19:30;;;;;;;22.23;4.53;;;;;;;;;;5075950;27;89333;-74
2023/05/27 00:21:57;;;;;;;18.73;4.20;;;;;;;;;;5057034;27;87985;-74
2023/05/27 00:24:23;;;;;;;17.02;4.47;;;;;;;;;;5038986;27;88151;-76
2023/05/27 00:26:49;;;;;;;26.15;4.47;;;;;;;;;;5039124;27;89362;-76
2023/05/27 00:29:16;;;;;;;16.73;5.05;;;;;;;;;;5057313;27;88882;-76
2023/05/27 00:31:43;;;;;;;12.30;3.70;;;;;;;;;;5059634;27;89765;-75
2023/05/27 00:34:09;;;;;;;18.48;4.40;;;;;;;;;;5056315;27;88999;-75
2023/05/27 00:36:36;;;;;;;14.27;4.07;;;;;;;;;;5044529;27;88145;-76
2023/05/27 00:39:02;;;;;;;18.90;4.70;;;;;;;;;;5074146;27;88437;-74
2023/05/27 00:41:29;;;;;;;27.60;5.32;;;;;;;;;;5063960;27;89384;-74
2023/05/27 00:43:56;;;;;;;23.17;4.85;;;;;;;;;;5056298;27;88497;-74
2023/05/27 00:46:23;;;;;;;23.38;4.68;;;;;;;;;;5058430;27;88286;-74
2023/05/27 00:48:49;;;;;;;20.10;4.70;;;;;;;;;;5076048;27;88426;-74
2023/05/27 00:51:16;;;;;;;22.10;4.28;;;;;;;;;;5052621;27;88614;-76
2023/05/27 00:53:43;;;;;;;19.27;4.45;;;;;;;;;;5059536;27;91478;-78
2023/05/27 00:56:11;;;;;;;18.00;4.53;;;;;;;;;;5059941;27;88091;-78
2023/05/27 00:58:37;;;;;;;20.55;4.05;;;;;;;;;;5062930;27;89982;-76
2023/05/27 01:01:04;;;;;;;19.50;4.38;;;;;;;;;;5058193;27;88634;-76
2023/05/27 01:03:34;;;;;;;21.70;4.53;;;;;;;;;;5076252;27;90236;-79
2023/05/27 01:06:08;;;;;;;17.65;4.20;;;;;;;;;;5030677;27;89344;-77
2023/05/27 01:08:37;;;;;;;18.65;4.63;;;;;;;;;;5055205;27;88076;-75
2023/05/27 01:11:06;;;;;;;12.85;3.70;;;;;;;;;;5042077;27;90046;-75
2023/05/27 01:13:39;;;;;;;19.15;4.38;;;;;;;;;;5051497;27;89570;-75
2023/05/27 01:16:08;;;;;;;24.30;5.13;;;;;;;;;;5059657;27;88050;-75
2023/05/27 01:18:35;;;;;;;16.52;4.07;;;;;;;;;;5059145;27;88888;-74
2023/05/27 01:21:05;;;;;;;19.20;4.40;;;;;;;;;;5072789;27;89474;-75
2023/05/27 01:23:32;;;;;;;20.55;4.72;;;;;;;;;;5079696;27;88884;-74
2023/05/27 01:25:59;;;;;;;17.40;3.92;;;;;;;;;;5079621;27;89072;-75
2023/05/27 01:28:26;;;;;;;17.27;4.75;;;;;;;;;;5078836;27;88377;-75
2023/05/27 01:30:54;;;;;;;17.92;4.38;;;;;;;;;;5076809;27;89165;-74
2023/05/27 01:33:23;;;;;;;24.77;4.43;;;;;;;;;;5079600;27;88059;-74
2023/05/27 01:35:51;;;;;;;18.67;4.63;;;;;;;;;;5050654;27;90364;-74
2023/05/27 01:38:19;;;;;;;17.65;3.85;;;;;;;;;;5065557;27;88207;-77
2023/05/27 01:40:47;;;;;;;19.73;4.20;;;;;;;;;;5062573;27;89134;-75
2023/05/27 01:43:14;;;;;;;21.90;4.00;;;;;;;;;;5063690;27;88843;-75
2023/05/27 01:45:42;;;;;;;17.52;3.72;;;;;;;;;;5051719;27;90527;-73
2023/05/27 01:48:11;;;;;;;19.02;5.47;;;;;;;;;;5041546;27;90093;-73
2023/05/27 01:50:38;;;;;;;18.30;4.18;;;;;;;;;;5052925;27;88905;-73
2023/05/27 01:53:06;;;;;;;23.83;4.22;;;;;;;;;;5078853;27;88919;-73
2023/05/27 01:55:32;;;;;;;16.73;3.60;;;;;;;;;;5076485;27;88217;-74
2023/05/27 01:57:59;;;;;;;15.07;4.10;;;;;;;;;;5078904;27;88802;-73
2023/05/27 02:00:25;;;;;;;22.27;4.22;;;;;;;;;;5060682;27;89442;-74
2023/05/27 02:02:52;;;;;;;23.75;5.10;;;;;;;;;;5079878;27;87991;-74
2023/05/27 02:05:18;;;;;;;17.58;4.03;;;;;;;;;;5082084;27;89500;-75
2023/05/27 02:07:45;;;;;;;18.80;4.63;;;;;;;;;;5074212;27;89206;-73
2023/05/27 02:10:11;;;;;;;15.02;3.60;;;;;;;;;;5072228;27;88598;-73
2023/05/27 02:12:38;;;;;;;19.83;5.03;;;;;;;;;;5077427;27;92941;-73
2023/05/27 02:15:05;;;;;;;29.10;4.85;;;;;;;;;;5079187;27;89032;-75
2023/05/27 02:17:31;;;;;;;13.90;4.28;;;;;;;;;;5052888;27;88802;-72
2023/05/27 02:19:58;;;;;;;17.80;4.03;;;;;;;;;;5055970;27;89225;-71
2023/05/27 02:22:24;;;;;;;20.95;4.30;;;;;;;;;;5070845;27;88201;-71
2023/05/27 02:24:51;;;;;;;18.88;3.92;;;;;;;;;;5082074;27;88899;-72
2023/05/27 02:27:17;;;;;;;23.00;4.25;;;;;;;;;;5076776;27;88918;-73
2023/05/27 02:29:43;;;;;;;17.45;3.95;;;;;;;;;;5079225;27;92103;-77
2023/05/27 02:32:10;;;;;;;21.83;4.05;;;;;;;;;;5074934;27;90046;-73
2023/05/27 02:34:37;;;;;;;13.52;3.78;;;;;;;;;;5078368;27;88078;-72
2023/05/27 02:37:04;;;;;;;16.48;3.97;;;;;;;;;;5066548;27;88660;-74
2023/05/27 02:39:31;;;;;;;15.65;3.58;;;;;;;;;;5058988;27;88999;-74
2023/05/27 02:41:57;;;;;;;31.73;4.50;;;;;;;;;;5062600;27;88125;-75
2023/05/27 02:44:23;;;;;;;18.10;4.50;;;;;;;;;;5057573;27;88902;-72
2023/05/27 02:46:50;;;;;;;15.10;4.22;;;;;;;;;;5059809;27;88127;-72
2023/05/27 02:49:18;;;;;;;14.80;4.15;;;;;;;;;;5059949;27;88767;-72
2023/05/27 02:51:44;;;;;;;19.75;4.47;;;;;;;;;;5068374;27;89206;-74
2023/05/27 02:54:10;;;;;;;27.13;4.82;;;;;;;;;;5057836;27;88529;-74
2023/05/27 02:56:38;;;;;;;14.38;3.78;;;;;;;;;;5056032;27;89843;-73
2023/05/27 02:59:05;;;;;;;24.95;4.97;;;;;;;;;;5040442;27;88919;-74
2023/05/27 03:01:32;;;;;;;17.35;3.97;;;;;;;;;;5067353;27;91538;-74
2023/05/27 03:03:58;;;;;;;14.02;3.65;;;;;;;;;;5060331;27;92690;-71
2023/05/27 03:06:25;;;;;;;17.45;4.05;;;;;;;;;;5075210;27;89218;-71
2023/05/27 03:08:51;;;;;;;18.10;4.15;;;;;;;;;;5061281;27;88101;-70
2023/05/27 03:11:17;;;;;;;16.25;4.28;;;;;;;;;;5069877;27;89196;-71
2023/05/27 03:13:44;;;;;;;18.77;3.80;;;;;;;;;;5053421;27;87626;-70
2023/05/27 03:16:11;;;;;;;15.85;3.92;;;;;;;;;;5073811;27;88582;-71
2023/05/27 03:18:37;;;;;;;19.33;3.58;;;;;;;;;;5059727;27;88764;-70
2023/05/27 03:21:04;;;;;;;18.52;4.60;;;;;;;;;;5061351;27;88743;-71
2023/05/27 03:23:30;;;;;;;11.73;3.88;;;;;;;;;;5078335;27;90552;-70
2023/05/27 03:25:57;;;;;;;14.15;4.03;;;;;;;;;;5078003;27;89209;-70
2023/05/27 03:28:23;;;;;;;13.93;4.07;;;;;;;;;;5057910;27;88132;-71
2023/05/27 03:30:50;;;;;;;14.38;4.10;;;;;;;;;;5058990;27;88801;-70
2023/05/27 03:33:16;;;;;;;21.25;4.53;;;;;;;;;;5057646;27;88941;-70
2023/05/27 03:35:42;;;;;;;22.52;4.57;;;;;;;;;;5050760;27;89829;-71
2023/05/27 03:38:09;;;;;;;13.93;3.40;;;;;;;;;;5036833;28;88194;-71
2023/05/27 03:40:35;;;;;;;19.05;4.53;;;;;;;;;;5041280;27;88207;-71
2023/05/27 03:43:01;;;;;;;13.85;3.83;;;;;;;;;;5066384;27;87994;-71
2023/05/27 03:45:28;;;;;;;17.80;4.15;;;;;;;;;;5067838;27;89733;-71
2023/05/27 03:47:54;;;;;;;15.50;4.10;;;;;;;;;;5056734;27;88259;-76
2023/05/27 03:50:20;;;;;;;14.85;3.92;;;;;;;;;;5072520;27;88876;-75
2023/05/27 03:52:47;;;;;;;12.20;4.05;;;;;;;;;;5077378;27;89325;-75
2023/05/27 03:55:14;;;;;;;17.17;4.60;;;;;;;;;;5077299;27;88670;-74
2023/05/27 03:57:40;;;;;;;18.98;4.68;;;;;;;;;;5077197;27;88935;-74
2023/05/27 04:00:07;;;;;;;21.23;4.65;;;;;;;;;;5074811;27;88369;-73
2023/05/27 04:02:34;;;;;;;19.33;4.85;;;;;;;;;;5075575;27;89088;-73
2023/05/27 04:05:01;;;;;;;23.65;4.80;;;;;;;;;;5049944;27;89143;-73
2023/05/27 04:07:28;;;;;;;16.42;5.00;;;;;;;;;;5056335;27;88043;-73
2023/05/27 04:09:55;;;;;;;20.08;4.68;;;;;;;;;;5067431;27;90441;-75
2023/05/27 04:12:21;;;;;;;15.20;4.97;;;;;;;;;;5076909;27;88949;-73
2023/05/27 04:14:47;;;;;;;10.57;4.10;;;;;;;;;;5061775;27;88267;-73
2023/05/27 04:17:14;;;;;;;15.52;4.55;;;;;;;;;;5063226;27;89066;-74
2023/05/27 04:19:40;;;;;;;18.73;4.60;;;;;;;;;;5075209;27;88092;-74
2023/05/27 04:22:07;;;;;;;22.35;5.18;;;;;;;;;;5078034;27;88960;-73
2023/05/27 04:24:33;;;;;;;16.55;4.78;;;;;;;;;;5080612;27;88844;-73
2023/05/27 04:27:01;;;;;;;22.55;4.88;;;;;;;;;;5062248;27;87945;-73
2023/05/27 04:29:27;;;;;;;19.83;4.30;;;;;;;;;;5078491;27;88859;-72
2023/05/27 04:31:56;;;;;;;20.38;4.68;;;;;;;;;;5079999;27;89063;-71
2023/05/27 04:34:23;;;;;;;16.40;4.38;;;;;;;;;;5061529;27;88915;-72
2023/05/27 04:36:49;;;;;;;21.90;4.60;;;;;;;;;;5047083;27;88855;-71
2023/05/27 04:39:16;;;;;;;23.08;5.07;;;;;;;;;;5051984;27;88195;-72
2023/05/27 04:41:43;;;;;;;22.77;5.13;;;;;;;;;;5066945;27;88766;-75
2023/05/27 04:44:09;;;;;;;27.23;5.25;;;;;;;;;;5057821;27;89387;-73
2023/05/27 04:46:38;;;;;;;17.75;4.43;;;;;;;;;;5058661;27;88249;-74
2023/05/27 04:49:05;;;;;;;16.58;4.85;;;;;;;;;;5058641;27;88878;-74
2023/05/27 04:51:31;;;;;;;21.75;4.40;;;;;;;;;;5042318;27;88293;-73
2023/05/27 04:53:58;;;;;;;16.15;4.85;;;;;;;;;;5064434;27;88082;-73
2023/05/27 04:56:24;;;;;;;22.80;4.93;;;;;;;;;;5082731;27;88824;-73
2023/05/27 04:58:50;;;;;;;21.90;4.85;;;;;;;;;;5076770;27;88815;-73
2023/05/27 05:01:17;;;;;;;18.83;4.70;;;;;;;;;;5061598;27;89211;-71
2023/05/27 05:03:52;;;;;;;17.90;4.82;;;;;;;;;;5076728;27;90187;-71
2023/05/27 05:06:19;;;;;;;26.27;5.05;;;;;;;;;;5079891;27;88543;-71
2023/05/27 05:08:45;;;;;;;28.67;5.18;;;;;;;;;;5077968;27;88871;-71
2023/05/27 05:11:12;;;;;;;23.70;4.82;;;;;;;;;;5078773;27;88748;-73
2023/05/27 05:13:38;;;;;;;19.25;4.50;;;;;;;;;;5076281;27;88239;-74
2023/05/27 05:16:05;;;;;;;17.85;5.05;;;;;;;;;;5079289;27;89193;-74
2023/05/27 05:18:31;;;;;;;18.88;4.45;;;;;;;;;;5042870;27;90285;-74
2023/05/27 05:20:57;;;;;;;19.48;5.30;;;;;;;;;;5059409;27;89586;-73
2023/05/27 05:23:27;;;;;;;23.05;5.20;;;;;;;;;;5079484;27;91054;-73
2023/05/27 05:25:58;;;;;;;26.70;5.27;;;;;;;;;;5077922;27;88278;-74
2023/05/27 05:28:24;;;;;;;;;;;;;;;;;;5080519;27;90040;-73
2023/05/27 05:30:51;;;;;;;23.13;5.30;;;;;;;;;;5059243;27;119685;-74
2023/05/27 05:33:18;;;;;;;17.60;5.10;;;;;;;;;;5059208;27;88020;-73
2023/05/27 05:35:47;;;;;;;27.98;5.40;;;;;;;;;;5050663;27;88987;-72
2023/05/27 05:38:14;;;;;;;20.08;4.85;;;;;;;;;;5038180;28;89114;-73
2023/05/27 05:40:40;;;;;;;26.95;5.13;;;;;;;;;;5067644;27;87873;-72
2023/05/27 05:43:06;;;;;;;30.10;5.07;;;;;;;;;;5059221;27;90518;-72
2023/05/27 05:45:33;;;;;;;28.33;5.80;;;;;;;;;;5055488;27;88043;-71
2023/05/27 05:47:59;;;;;;;16.92;5.13;;;;;;;;;;5055460;27;89176;-72
2023/05/27 05:50:26;;;;;;;22.98;4.95;;;;;;;;;;5057103;27;89110;-73
2023/05/27 05:52:52;;;;;;;24.55;5.38;;;;;;;;;;5066423;27;88164;-72
2023/05/27 05:55:19;;;;;;;33.53;6.78;;;;;;;;;;5039623;27;88340;-73
2023/05/27 05:57:45;;;;;;;22.80;4.53;;;;;;;;;;5060758;27;88970;-73
2023/05/27 06:00:12;;;;;;;18.02;4.60;;;;;;;;;;5061027;27;88387;-71
2023/05/27 06:02:39;;;;;;;22.38;4.88;;;;;;;;;;5066619;27;88313;-72
2023/05/27 06:05:05;;;;;;;19.73;4.75;;;;;;;;;;5058829;27;87755;-72
2023/05/27 06:07:31;;;;;;;28.42;5.28;;;;;;;;;;5060419;27;88860;-71
2023/05/27 06:09:58;;;;;;;29.52;5.70;;;;;;;;;;5057728;27;88114;-71
2023/05/27 06:12:25;;;;;;;23.88;5.68;;;;;;;;;;5056514;27;89285;-71
2023/05/27 06:14:52;;;;;;;27.92;5.25;;;;;;;;;;5058162;27;89802;-71
2023/05/27 06:17:19;;;;;;;23.20;5.63;;;;;;;;;;5056360;27;89046;-71
2023/05/27 06:19:45;;;;;;;32.80;5.40;;;;;;;;;;5060843;27;88783;-71
2023/05/27 06:22:12;;;;;;;122.07;8.70;;;;;;;;;;5058464;27;89778;-71
2023/05/27 06:24:38;;;;;;;30.10;5.70;;;;;;;;;;5060206;27;89102;-72
2023/05/27 06:27:05;;;;;;;24.35;5.57;;;;;;;;;;5042775;27;89378;-72
2023/05/27 06:29:31;;;;;;;27.48;6.05;;;;;;;;;;5058403;27;87586;-72
2023/05/27 06:31:58;;;;;;;25.13;5.22;;;;;;;;;;5055359;27;89581;-72
2023/05/27 06:34:24;;;;;;;26.27;6.45;;;;;;;;;;5069307;27;88391;-71
2023/05/27 06:36:51;;;;;;;27.52;6.43;;;;;;;;;;5050464;27;89703;-71
2023/05/27 06:39:17;;;;;;;29.20;5.68;;;;;;;;;;5060494;27;88089;-71
2023/05/27 06:41:43;;;;;;;36.15;6.55;;;;;;;;;;5067201;27;89025;-72
2023/05/27 06:44:10;;;;;;;33.65;7.65;;;;;;;;;;5053978;27;89172;-71
2023/05/27 06:46:36;;;;;;;32.15;7.00;;;;;;;;;;5042488;27;88879;-71
2023/05/27 06:49:03;;;;;;;24.05;5.43;;;;;;;;;;5077153;27;89044;-71
2023/05/27 06:51:29;;;;;;;26.13;5.70;;;;;;;;;;5048406;27;88057;-71
2023/05/27 06:53:55;;;;;;;33.33;6.63;;;;;;;;;;5067927;27;89103;-72
2023/05/27 06:56:22;;;;;;;27.00;6.63;;;;;;;;;;5056856;27;88972;-71
2023/05/27 06:58:48;;;;;;;31.38;6.22;;;;;;;;;;5059708;27;88037;-71
2023/05/27 07:01:14;;;;;;;30.58;6.30;;;;;;;;;;5041108;27;88884;-72
2023/05/27 07:03:41;;;;;;;35.25;6.03;;;;;;;;;;5050518;27;89162;-72
2023/05/27 07:06:07;;;;;;;31.10;6.45;;;;;;;;;;5061029;27;88542;-72
2023/05/27 07:08:34;;;;;;;32.42;7.57;;;;;;;;;;5067489;27;90013;-72
2023/05/27 07:11:00;;;;;;;29.45;5.90;;;;;;;;;;5046848;27;88044;-72
2023/05/27 07:13:27;;;;;;;26.25;6.05;;;;;;;;;;5059652;27;88828;-72
2023/05/27 07:15:53;;;;;;;26.67;5.93;;;;;;;;;;5061513;27;90961;-71
2023/05/27 07:18:19;;;;;;;29.70;7.45;;;;;;;;;;5056407;27;88296;-71
2023/05/27 07:20:46;;;;;;;22.17;5.30;;;;;;;;;;5037654;28;87990;-71
2023/05/27 07:23:12;;;;;;;19.83;5.13;;;;;;;;;;5059550;27;92607;-72
2023/05/27 07:25:39;;;;;;;29.13;6.07;;;;;;;;;;5070260;27;90741;-71
2023/05/27 07:28:05;;;;;;;29.55;6.75;;;;;;;;;;5061218;27;89598;-71
2023/05/27 07:30:31;;;;;;;30.75;6.05;;;;;;;;;;5056569;27;88072;-72
2023/05/27 07:32:58;;;;;;;36.15;6.43;;;;;;;;;;5063003;27;88836;-72
2023/05/27 07:35:24;;;;;;;25.08;5.72;;;;;;;;;;5060014;27;88846;-72
2023/05/27 07:37:50;;;;;;;32.65;6.22;;;;;;;;;;5059425;27;88685;-71
2023/05/27 07:40:17;;;;;;;28.58;6.20;;;;;;;;;;5056638;27;89150;-71
2023/05/27 07:42:43;;;;;;;20.92;5.38;;;;;;;;;;5051948;27;88791;-72
2023/05/27 07:45:10;;;;;;;32.00;6.60;;;;;;;;;;5054369;27;88455;-72
2023/05/27 07:47:36;;;;;;;20.23;6.05;;;;;;;;;;5056107;27;90054;-72
2023/05/27 07:50:03;;;;;;;20.52;4.93;;;;;;;;;;5055638;27;90689;-72
2023/05/27 07:52:29;;;;;;;22.80;5.78;;;;;;;;;;5055920;27;89704;-73
2023/05/27 07:54:57;;;;;;;34.97;6.15;;;;;;;;;;5040065;27;89083;-73
2023/05/27 07:57:23;;;;;;;21.63;5.65;;;;;;;;;;5060071;27;88072;-72
2023/05/27 07:59:50;;;;;;;31.10;6.60;;;;;;;;;;5072618;27;88793;-72
2023/05/27 08:02:16;;;;;;;24.33;5.22;;;;;;;;;;5065597;27;88666;-72
2023/05/27 08:04:43;;;;;;;25.45;5.38;;;;;;;;;;5058497;27;88263;-72
2023/05/27 08:07:10;;;;;;;21.50;5.18;;;;;;;;;;5040106;28;89076;-72
2023/05/27 08:09:36;;;;;;;25.63;5.32;;;;;;;;;;5061143;27;89231;-72
2023/05/27 08:12:03;;;;;;;26.83;5.28;;;;;;;;;;5078989;27;88268;-71
2023/05/27 08:14:29;;;;;;;24.08;5.05;;;;;;;;;;5058646;27;89867;-73
2023/05/27 08:16:55;;;;;;;22.55;6.53;;;;;;;;;;5059765;27;88144;-74
2023/05/27 08:19:22;;;;;;;26.38;6.03;;;;;;;;;;5060248;27;89177;-71
2023/05/27 08:21:48;;;;;;;25.60;5.55;;;;;;;;;;5059926;27;89367;-72
2023/05/27 08:24:14;;;;;;;20.17;6.03;;;;;;;;;;5072153;27;88102;-71
2023/05/27 08:26:41;;;;;;;22.08;6.05;;;;;;;;;;5076929;27;88953;-75
2023/05/27 08:29:07;;;;;;;30.40;7.20;;;;;;;;;;5080251;27;89100;-74
2023/05/27 08:31:33;;;;;;;21.60;5.20;;;;;;;;;;5080476;27;87856;-75
2023/05/27 08:34:00;;;;;;;22.48;5.68;;;;;;;;;;5077390;27;88053;-72
2023/05/27 08:36:26;;;;;;;22.67;6.13;;;;;;;;;;5078158;27;88535;-72
2023/05/27 08:38:52;;;;;;;27.38;6.05;;;;;;;;;;5079485;27;89272;-73
2023/05/27 08:41:19;;;;;;;25.55;6.75;;;;;;;;;;5066226;27;89904;-74
2023/05/27 08:43:46;;;;;;;24.77;6.13;;;;;;;;;;5069708;27;89670;-73
2023/05/27 08:46:13;;;;;;;29.90;5.68;;;;;;;;;;5059615;27;89049;-72
2023/05/27 08:48:40;;;;;;;23.15;5.63;;;;;;;;;;5077821;27;90055;-72
2023/05/27 08:51:07;;;;;;;25.35;5.43;;;;;;;;;;5077317;27;88402;-73
2023/05/27 08:53:34;;;;;;;30.13;6.70;;;;;;;;;;5064684;27;88798;-71
2023/05/27 08:56:03;;;;;;;27.77;6.93;;;;;;;;;;5066347;27;87806;-72
2023/05/27 08:58:30;;;;;;;21.07;5.80;;;;;;;;;;5076625;27;89443;-72
2023/05/27 09:00:57;;;;;;;25.92;6.75;;;;;;;;;;5075052;27;88993;-72
2023/05/27 09:03:23;;;;;;;28.75;6.55;;;;;;;;;;5058563;27;88764;-72
2023/05/27 09:05:50;;;;;;;25.40;6.60;;;;;;;;;;5058806;27;89591;-72
2023/05/27 09:08:16;;;;;;;30.10;6.72;;;;;;;;;;5061348;27;89235;-72
2023/05/27 09:10:43;;;;;;;24.20;6.00;;;;;;;;;;5059049;27;88925;-72
2023/05/27 09:13:09;;;;;;;35.05;6.22;;;;;;;;;;5060454;27;88803;-72
2023/05/27 09:15:36;;;;;;;26.10;6.40;;;;;;;;;;5051963;27;89136;-71
2023/05/27 09:18:02;;;;;;;24.20;5.75;;;;;;;;;;5051525;27;88770;-71
2023/05/27 09:20:29;;;;;;;25.00;5.88;;;;;;;;;;5068324;27;88027;-72
2023/05/27 09:22:56;;;;;;;30.42;7.18;;;;;;;;;;5062810;27;88179;-71
2023/05/27 09:25:23;;;;;;;31.85;6.28;;;;;;;;;;5067502;27;88645;-72
2023/05/27 09:27:50;;;;;;;23.48;5.50;;;;;;;;;;5060000;27;89749;-71
2023/05/27 09:30:19;;;;;;;33.45;6.35;;;;;;;;;;5041563;27;88643;-72
2023/05/27 09:32:46;;;;;;;33.13;6.97;;;;;;;;;;5071917;27;89121;-72
2023/05/27 09:35:12;;;;;;;27.70;6.60;;;;;;;;;;5079415;27;89118;-72
2023/05/27 09:37:40;;;;;;;29.45;7.00;;;;;;;;;;5081898;27;88110;-73
2023/05/27 09:40:12;;;;;;;29.55;6.93;;;;;;;;;;5046583;27;89392;-71
2023/05/27 09:42:42;;;;;;;24.77;6.15;;;;;;;;;;5075031;27;88320;-72
2023/05/27 09:45:12;;;;;;;24.15;6.50;;;;;;;;;;5055162;27;88898;-73
2023/05/27 09:47:39;;;;;;;24.42;6.15;;;;;;;;;;5071063;27;92069;-73
2023/05/27 09:50:07;;;;;;;23.80;5.82;;;;;;;;;;5067753;27;88187;-72
2023/05/27 09:52:35;;;;;;;37.35;6.72;;;;;;;;;;5065025;27;89236;-72
2023/05/27 09:55:11;;;;;;;33.13;6.55;;;;;;;;;;5073937;27;89689;-73
2023/05/27 09:57:37;;;;;;;22.15;6.05;;;;;;;;;;5052242;27;88922;-73
2023/05/27 10:00:11;;;;;;;22.92;6.03;;;;;;;;;;5068803;27;88864;-73
2023/05/27 10:02:39;;;;;;;23.63;6.93;;;;;;;;;;5055536;27;88284;-73
2023/05/27 10:05:07;;;;;;;22.75;5.38;;;;;;;;;;5058785;27;88659;-72
2023/05/27 10:07:36;;;;;;;27.30;6.65;;;;;;;;;;5064223;27;89976;-72
2023/05/27 10:10:16;;;;;;;24.75;6.03;;;;;;;;;;5071442;27;89395;-73
2023/05/27 10:12:43;;;;;;;23.90;5.55;;;;;;;;;;5070064;27;88769;-72
2023/05/27 10:15:09;;;;;;;28.73;5.93;;;;;;;;;;5058402;27;89381;-72
2023/05/27 10:17:46;;;;;;;34.50;5.95;;;;;;;;;;5061058;27;89461;-72
2023/05/27 10:20:23;;;;;;;30.42;6.45;;;;;;;;;;5066868;27;89527;-73
2023/05/27 10:22:49;;;;;;;27.25;6.20;;;;;;;;;;5064991;27;89458;-72
2023/05/27 10:25:16;;;;;;;24.70;6.25;;;;;;;;;;5047750;27;89112;-73
2023/05/27 10:27:46;;;;;;;24.48;5.93;;;;;;;;;;5048684;27;89061;-74
2023/05/27 10:30:13;;;;;;;24.65;5.50;;;;;;;;;;5068521;27;89651;-73
2023/05/27 10:32:58;;;;;;;26.92;5.97;;;;;;;;;;5075487;27;88965;-74
2023/05/27 10:35:27;;;;;;;22.83;6.03;;;;;;;;;;5076413;27;88254;-72
2023/05/27 10:37:54;;;;;;;24.52;5.10;;;;;;;;;;5065640;27;88118;-73
2023/05/27 10:40:23;;;;;;;24.88;5.97;;;;;;;;;;5068311;27;88871;-74
2023/05/27 10:42:58;;;;;;;21.23;5.93;;;;;;;;;;5045985;27;89911;-72
2023/05/27 10:45:30;;;;;;;20.50;6.00;;;;;;;;;;5062792;27;88388;-73
2023/05/27 10:47:57;;;;;;;24.13;6.00;;;;;;;;;;5058896;27;89068;-74
2023/05/27 10:50:28;;;;;;;19.85;5.50;;;;;;;;;;5060471;27;88051;-73
2023/05/27 10:52:56;;;;;;;30.50;5.60;;;;;;;;;;5076640;27;88784;-73
2023/05/27 10:55:22;;;;;;;21.88;5.93;;;;;;;;;;5076624;27;89075;-73
2023/05/27 10:57:49;;;;;;;28.42;5.30;;;;;;;;;;5076860;27;88493;-71
2023/05/27 11:00:16;;;;;;;20.27;6.57;;;;;;;;;;5076212;27;89115;-72
2023/05/27 11:02:43;;;;;;;19.42;5.32;;;;;;;;;;5075647;27;88971;-72
2023/05/27 11:05:11;;;;;;;21.00;5.00;;;;;;;;;;5077520;27;88071;-72
2023/05/27 11:07:38;;;;;;;22.17;5.10;;;;;;;;;;5075561;27;90754;-72
2023/05/27 11:10:06;;;;;;;27.75;6.20;;;;;;;;;;5074589;27;88087;-72
2023/05/27 11:12:33;;;;;;;22.52;6.22;;;;;;;;;;5056046;27;88893;-72
2023/05/27 11:14:59;;;;;;;21.77;5.75;;;;;;;;;;5059354;27;88048;-72
2023/05/27 11:17:25;;;;;;;21.25;5.55;;;;;;;;;;5072750;27;88193;-72
2023/05/27 11:19:52;;;;;;;25.13;6.00;;;;;;;;;;5071463;27;88766;-74
2023/05/27 11:22:19;;;;;;;25.65;5.35;;;;;;;;;;5054149;27;89683;-72
2023/05/27 11:24:55;;;;;;;20.65;6.40;;;;;;;;;;5068213;27;87811;-72
2023/05/27 11:27:21;;;;;;;16.98;5.00;;;;;;;;;;5059371;27;88179;-74
2023/05/27 11:29:51;;;;;;;14.23;4.47;;;;;;;;;;5060624;27;88591;-74
2023/05/27 11:32:18;;;;;;;17.13;5.18;;;;;;;;;;5060006;27;89602;-72
2023/05/27 11:34:45;;;;;;;21.77;5.38;;;;;;;;;;5059245;27;90391;-72
2023/05/27 11:37:12;;;;;;;14.30;4.82;;;;;;;;;;5068879;27;88098;-71
2023/05/27 11:39:49;;;;;;;15.48;4.93;;;;;;;;;;5063646;27;88568;-71
2023/05/27 11:42:20;;;;;;;20.00;5.32;;;;;;;;;;5057246;27;89644;-72
2023/05/27 11:44:50;;;;;;;20.90;6.10;;;;;;;;;;5046957;27;88108;-72
2023/05/27 11:47:16;;;;;;;19.05;5.05;;;;;;;;;;5039106;27;89034;-72
2023/05/27 11:49:43;;;;;;;15.38;5.13;;;;;;;;;;5059232;27;89377;-72
2023/05/27 11:52:10;;;;;;;17.83;5.63;;;;;;;;;;5059002;27;89472;-72
2023/05/27 11:54:37;;;;;;;20.08;5.45;;;;;;;;;;5064456;27;89011;-72
2023/05/27 11:57:12;;;;;;;20.48;5.40;;;;;;;;;;5052696;27;88753;-72
2023/05/27 11:59:38;;;;;;;14.07;5.55;;;;;;;;;;5065023;27;89782;-72
2023/05/27 12:02:04;;;;;;;16.30;4.95;;;;;;;;;;5051421;27;90203;-72
2023/05/27 12:04:31;;;;;;;16.75;5.15;;;;;;;;;;5065229;27;88274;-72
2023/05/27 12:07:02;;;;;;;17.65;5.10;;;;;;;;;;5077226;27;87923;-72
2023/05/27 12:09:41;;;;;;;15.40;4.63;;;;;;;;;;5061763;27;89145;-72
2023/05/27 12:12:07;;;;;;;17.55;5.13;;;;;;;;;;5070363;27;88227;-71
2023/05/27 12:14:34;;;;;;;22.65;5.57;;;;;;;;;;5072054;27;88302;-72
2023/05/27 12:17:00;;;;;;;15.60;4.75;;;;;;;;;;5064150;27;88478;-72
2023/05/27 12:19:28;;;;;;;16.88;4.97;;;;;;;;;;5058461;27;89070;-72
2023/05/27 12:21:54;;;;;;;15.52;4.72;;;;;;;;;;5060051;27;90037;-73
2023/05/27 12:24:21;;;;;;;19.20;4.70;;;;;;;;;;5055966;27;88598;-72
2023/05/27 12:26:47;;;;;;;17.98;5.53;;;;;;;;;;5063948;27;89589;-72
2023/05/27 12:29:14;;;;;;;14.95;5.03;;;;;;;;;;5063109;27;89393;-72
2023/05/27 12:31:40;;;;;;;20.88;5.22;;;;;;;;;;5059605;27;88145;-72
2023/05/27 12:34:06;;;;;;;15.05;4.43;;;;;;;;;;5067620;27;88913;-72
2023/05/27 12:36:33;;;;;;;16.63;4.43;;;;;;;;;;5064971;27;88355;-72
2023/05/27 12:38:59;;;;;;;23.88;4.75;;;;;;;;;;5056496;27;88928;-72
2023/05/27 12:41:26;;;;;;;21.98;7.18;;;;;;;;;;5061596;27;89192;-72
2023/05/27 12:43:52;;;;;;;16.05;5.40;;;;;;;;;;5068276;27;88164;-72
2023/05/27 12:46:19;;;;;;;18.02;5.53;;;;;;;;;;5064034;27;88838;-72
2023/05/27 12:48:45;;;;;;;16.10;4.60;;;;;;;;;;5069296;27;89042;-72
2023/05/27 12:51:11;;;;;;;14.50;4.90;;;;;;;;;;5065346;27;89506;-73
2023/05/27 12:53:38;;;;;;;16.20;5.00;;;;;;;;;;5073608;27;88933;-72
2023/05/27 12:56:04;;;;;;;18.02;4.93;;;;;;;;;;5071011;27;88080;-72
2023/05/27 12:58:31;;;;;;;16.67;4.80;;;;;;;;;;5075912;27;88884;-71
2023/05/27 13:00:57;;;;;;;15.80;4.70;;;;;;;;;;5063773;27;89060;-73
2023/05/27 13:03:24;;;;;;;28.58;6.28;;;;;;;;;;5058057;27;88534;-72
2023/05/27 13:05:50;;;;;;;16.08;4.55;;;;;;;;;;5072332;27;88122;-72
2023/05/27 13:08:17;;;;;;;16.13;4.70;;;;;;;;;;5075072;27;88730;-72
2023/05/27 13:10:43;;;;;;;17.67;4.47;;;;;;;;;;5046151;27;89763;-72
2023/05/27 13:13:10;;;;;;;21.88;4.78;;;;;;;;;;5046737;27;90660;-72
2023/05/27 13:15:37;;;;;;;20.15;5.18;;;;;;;;;;5069660;27;89686;-72
2023/05/27 13:18:06;;;;;;;18.60;4.97;;;;;;;;;;5060141;27;89271;-73
2023/05/27 13:20:33;;;;;;;16.85;4.78;;;;;;;;;;5060087;27;89646;-73
2023/05/27 13:23:00;;;;;;;15.45;4.43;;;;;;;;;;5043285;27;88958;-72
2023/05/27 13:25:28;;;;;;;15.00;5.07;;;;;;;;;;5057684;27;89612;-72
2023/05/27 13:27:55;;;;;;;15.73;4.85;;;;;;;;;;5068308;27;88589;-73
2023/05/27 13:30:22;;;;;;;22.17;5.25;;;;;;;;;;5076058;27;88484;-73
2023/05/27 13:32:48;;;;;;;14.90;5.40;;;;;;;;;;5073464;27;89730;-73
2023/05/27 13:35:16;;;;;;;18.17;4.65;;;;;;;;;;5072114;27;90062;-72
2023/05/27 13:37:42;;;;;;;27.00;5.75;;;;;;;;;;5059472;27;88712;-73
2023/05/27 13:40:09;;;;;;;17.52;4.60;;;;;;;;;;5055328;27;89431;-74
2023/05/27 13:42:35;;;;;;;16.23;4.78;;;;;;;;;;5051958;27;88094;-73
2023/05/27 13:45:02;;;;;;;22.10;5.28;;;;;;;;;;5066799;27;89366;-72
2023/05/27 13:47:29;;;;;;;42.65;6.45;;;;;;;;;;5071759;27;89569;-72
2023/05/27 13:49:55;;;;;;;16.83;5.30;;;;;;;;;;5072687;27;88028;-73
2023/05/27 13:52:22;;;;;;;17.73;4.93;;;;;;;;;;5058713;27;88801;-72
2023/05/27 13:54:48;;;;;;;16.75;4.70;;;;;;;;;;5073418;27;90080;-73
2023/05/27 13:57:14;;;;;;;17.55;4.40;;;;;;;;;;5078517;27;88064;-73
2023/05/27 13:59:41;;;;;;;15.18;4.32;;;;;;;;;;5081780;27;88657;-74
2023/05/27 14:02:09;;;;;;;14.32;4.68;;;;;;;;;;5076855;27;88252;-74
2023/05/27 14:04:35;;;;;;;15.30;4.55;;;;;;;;;;5064558;27;89157;-74
2023/05/27 14:07:02;;;;;;;14.82;4.32;;;;;;;;;;5062293;27;88952;-73
2023/05/27 14:09:28;;;;;;;17.27;4.72;;;;;;;;;;5066198;27;90244;-74
2023/05/27 14:11:55;;;;;;;16.05;4.50;;;;;;;;;;5042694;27;89760;-73
2023/05/27 14:14:22;;;;;;;18.35;4.72;;;;;;;;;;5062145;27;89158;-73
2023/05/27 14:16:48;;;;;;;14.70;4.38;;;;;;;;;;5037305;27;88094;-73
2023/05/27 14:19:15;;;;;;;16.60;4.90;;;;;;;;;;5050604;27;89373;-74
2023/05/27 14:21:42;;;;;;;17.33;4.70;;;;;;;;;;5045511;27;88723;-73
2023/05/27 14:24:12;;;;;;;21.05;5.20;;;;;;;;;;5061651;27;88923;-74
2023/05/27 14:26:40;;;;;;;20.20;5.18;;;;;;;;;;5040694;27;92012;-74
2023/05/27 14:29:09;;;;;;;13.27;5.20;;;;;;;;;;5039108;27;88298;-73
2023/05/27 14:31:35;;;;;;;16.35;4.40;;;;;;;;;;5046576;27;88995;-74